ADDS METAR Data INFO
IDs: Format: Raw Decoded Include TAF

Data at: 1845 UTC 17 Oct 2017

KGXY 171756Z AUTO 00000KT 10SM CLR 17/M03 A3021 RMK AO2 SLP225 T01721028 10178 21022 58015
KGXY 171656Z AUTO 00000KT 10SM CLR 13/M01 A3023 RMK AO2 SLP239 T01281011
KGXY 171556Z AUTO 22005KT 10SM CLR 09/M01 A3025 RMK AO2 SLP246 T00941006
KGXY 171456Z AUTO 00000KT 10SM CLR 06/00 A3026 RMK AO2 SLP254 T00560000 53000
KGXY 171356Z AUTO 25003KT 10SM CLR 01/M03 A3024 RMK AO2 SLP256 T00061028 FZRANO
KGXY 171256Z AUTO 29003KT 10SM CLR M01/M04 A3025 RMK AO2 SLP251 T10111039 FZRANO
KGXY 171156Z AUTO 27004KT 10SM CLR M01/M04 A3025 RMK AO2 SLP242 T10061039 10039 21011 53000 FZRANO
KGXY 171056Z AUTO 00000KT 10SM CLR M01/M03 A3025 RMK AO2 SLP233 T10061028 FZRANO
KGXY 170956Z AUTO 33005KT 10SM CLR M01/M03 A3024 RMK AO2 SLP231 T10061033 FZRANO
KGXY 170856Z AUTO 28006KT 10SM CLR 01/M03 A3025 RMK AO2 SLP234 T00111033 57001 FZRANO
KGXY 170756Z AUTO 33005KT 10SM CLR 00/M03 A3026 RMK AO2 SLP241 T00001033 FZRANO
KGXY 170656Z AUTO 00000KT 9SM CLR 03/M02 A3025 RMK AO2 SLP239 T00281022 402671022
KGXY 170556Z AUTO 00000KT 10SM CLR 03/M02 A3026 RMK AO2 SLP246 T00331017 10217 20033 51008
KGXY 170356Z AUTO 23004KT 10SM CLR 07/M02 A3025 RMK AO2 SLP255 T00721017
KGXY 170156Z AUTO 01005KT 10SM CLR 11/00 A3022 RMK AO2 SLP247 T01060000
KGXY 170056Z AUTO 27004KT 10SM CLR 15/M02 A3019 RMK AO2 SLP234 T01501022
KGXY 162356Z AUTO 18004KT 10SM CLR 22/M02 A3018 RMK AO2 SLP217 T02171017 10267 20156 55001
KGXY 162256Z AUTO 00000KT 10SM CLR 26/M08 A3018 RMK AO2 SLP210 T02561078
KGXY 162156Z AUTO 00000KT 10SM CLR 26/M04 A3018 RMK AO2 SLP209 T02611044
KGXY 162056Z AUTO 00000KT 9SM CLR 24/M02 A3018 RMK AO2 SLP211 T02441022 56024
KGXY 161956Z AUTO 00000KT 10SM CLR 22/M02 A3020 RMK AO2 SLP222 T02171022
KGXY 161856Z AUTO 00000KT 9SM CLR 19/00 A3023 RMK AO2 SLP236 T01890000
KGXY 161656Z AUTO 00000KT 10SM CLR 09/01 A3029 RMK AO2 SLP273 T00940006
KGXY 161556Z AUTO 00000KT 10SM CLR 06/01 A3031 RMK AO2 SLP283 T00560011
KGXY 161456Z AUTO 00000KT 10SM CLR 04/01 A3032 RMK AO2 SLP287 T00390006 55002
KGXY 161356Z AUTO 00000KT 10SM CLR 00/M02 A3031 RMK AO2 SLP288 T00001022 FZRANO
KGXY 161256Z AUTO 32004KT 10SM CLR M02/M03 A3031 RMK AO2 SLP287 T10221033 FZRANO
KGXY 161156Z AUTO 00000KT 10SM CLR M02/M03 A3032 RMK AO2 SLP279 T10221033 10017 21022 56010 FZRANO
KGXY 161056Z AUTO 33005KT 10SM CLR M02/M03 A3033 RMK AO2 SLP278 T10221033 FZRANO
KGXY 160956Z AUTO 00000KT 10SM CLR M02/M03 A3034 RMK AO2 SLP281 T10171033 FZRANO
KGXY 160856Z AUTO 04003KT 9SM CLR M01/M02 A3036 RMK AO2 SLP287 T10061022 56011 FZRANO
KGXY 160756Z AUTO 00000KT 10SM CLR M01/M03 A3037 RMK AO2 SLP294 T10061028 FZRANO
KGXY 160656Z AUTO 31004KT 10SM CLR 01/M03 A3038 RMK AO2 SLP297 T00111028 401781056 FZRANO